Voyageurs National Park, MN

09:06 AM CST die 19o December, anno 2014 (GMT -0600)
Falls International | Change Station
CLOSE
Current Station
Airport
Location: International Falls,
Elevation: 1181 ft
Nearby Weather Stations

Elev 1181 ft 48.56 °N, 93.40 °W | Updated 11 minutes ago

Aequaliter Nubila
Aequaliter Nubila
21 °F
Feels Like 11 °F
N
8
Ventus Variabilis Ventus from Magis Auster quam Eurus

Hodie
High -- | Low -- °F
--% Chance of Precip.
Yesterday
High -- | Low -- °F
Precip. -- in
8:02 AM 4:19 PM
Waning Crescent, 7% visible
Pressio 30.24 in
Visibilitas 10.0 milia passuum
Clouds Plerumque Nubila 1100 ft
Aequaliter Nubila 3500 ft
Frigus Venti 11 °F
Frigus in quo Ros apparet 17 °F
Umor 85%
Rainfall 0.01 in
Snow Depth Not available.
UV 0 out of 12
Pollen .10 out of 12
Air Quality Not available.
Flu Activity Not available.
METAR KINL 191455Z AUTO 15007KT 10SM BKN011 OVC035 M06/M08 A3016 RMK AO2 SLP238 T10611083 55002

More Conditions Fewer Conditions

Pressio 30.24 in
Visibilitas 10.0 milia passuum
Clouds Plerumque Nubila 1100 ft
Aequaliter Nubila 3500 ft
Frigus Venti 11 °F
Frigus in quo Ros apparet 17 °F
Umor 85%
Rainfall 0.01 in
Snow Depth Not available.
UV 0 out of 12
Pollen .10 out of 12
Air Quality Not available.
Flu Activity Not available.
METAR KINL 191455Z AUTO 15007KT 10SM BKN011 OVC035 M06/M08 A3016 RMK AO2 SLP238 T10611083 55002

More Conditions Fewer Conditions

10-Day Weather Forecast

Almanac

Astronomy

Dec. 19, 2014 Rise Set
Actual Time
Civil Twilight
Nautical Twilight
Astronomical Twilight
Moon
Length Of Visible Light
Length of Day
Tomorrow will be .
, % of the Moon is Illuminated

Today's Extremes

State Highs State Lows

Community

WunderPhotos

Upload Photos

1,778,993 photos uploaded!

WunderBlogs® & News

Nearby

Air Quality

  Air Quality AQ Index Pollutant
Not available.

Snow Depth

Station Depth Elevation

Earthquake Activity

City Distance Mag. Time & Date
Minimum magnitude displayed is 2.5.

Coastal Water Temperatures

Locus Calor

Nearby Weather Stations